sensor_id;sensor_type;location;lat;lon;timestamp;P1;durP1;ratioP1;P2;durP2;ratioP2
58842;SDS011;44614;54.356;10.100;2023-05-13T00:00:47;9.52;;;5.60;;
58842;SDS011;44614;54.356;10.100;2023-05-13T00:03:12;10.20;;;4.55;;
58842;SDS011;44614;54.356;10.100;2023-05-13T00:05:38;12.45;;;5.40;;
58842;SDS011;44614;54.356;10.100;2023-05-13T00:08:04;8.05;;;5.07;;
58842;SDS011;44614;54.356;10.100;2023-05-13T00:10:31;9.05;;;5.10;;
58842;SDS011;44614;54.356;10.100;2023-05-13T00:12:57;8.18;;;5.65;;
58842;SDS011;44614;54.356;10.100;2023-05-13T00:15:23;10.25;;;6.00;;
58842;SDS011;44614;54.356;10.100;2023-05-13T00:17:48;7.82;;;5.20;;
58842;SDS011;44614;54.356;10.100;2023-05-13T00:20:13;10.05;;;4.75;;
58842;SDS011;44614;54.356;10.100;2023-05-13T00:22:39;7.53;;;3.78;;
58842;SDS011;44614;54.356;10.100;2023-05-13T00:25:04;9.88;;;4.65;;
58842;SDS011;44614;54.356;10.100;2023-05-13T00:27:29;9.68;;;4.72;;
58842;SDS011;44614;54.356;10.100;2023-05-13T00:29:56;7.10;;;4.45;;
58842;SDS011;44614;54.356;10.100;2023-05-13T00:34:49;8.20;;;4.68;;
58842;SDS011;44614;54.356;10.100;2023-05-13T00:37:14;13.07;;;4.97;;
58842;SDS011;44614;54.356;10.100;2023-05-13T00:39:39;9.40;;;4.18;;
58842;SDS011;44614;54.356;10.100;2023-05-13T00:42:06;9.07;;;5.22;;
58842;SDS011;44614;54.356;10.100;2023-05-13T00:44:31;7.15;;;5.13;;
58842;SDS011;44614;54.356;10.100;2023-05-13T00:46:57;7.50;;;3.80;;
58842;SDS011;44614;54.356;10.100;2023-05-13T00:49:23;5.68;;;4.10;;
58842;SDS011;44614;54.356;10.100;2023-05-13T00:51:48;8.80;;;4.95;;
58842;SDS011;44614;54.356;10.100;2023-05-13T00:54:16;9.30;;;4.47;;
58842;SDS011;44614;54.356;10.100;2023-05-13T00:56:41;6.80;;;3.80;;
58842;SDS011;44614;54.356;10.100;2023-05-13T00:59:07;11.45;;;4.50;;
58842;SDS011;44614;54.356;10.100;2023-05-13T01:04:21;7.80;;;4.72;;
58842;SDS011;44614;54.356;10.100;2023-05-13T01:07:15;8.85;;;4.43;;
58842;SDS011;44614;54.356;10.100;2023-05-13T01:12:55;6.63;;;4.25;;
58842;SDS011;44614;54.356;10.100;2023-05-13T01:15:24;7.47;;;4.63;;
58842;SDS011;44614;54.356;10.100;2023-05-13T01:17:53;8.93;;;4.95;;
58842;SDS011;44614;54.356;10.100;2023-05-13T01:20:21;8.35;;;5.18;;
58842;SDS011;44614;54.356;10.100;2023-05-13T01:22:47;9.55;;;4.45;;
58842;SDS011;44614;54.356;10.100;2023-05-13T01:25:12;10.35;;;5.40;;
58842;SDS011;44614;54.356;10.100;2023-05-13T01:27:38;10.20;;;4.75;;
58842;SDS011;44614;54.356;10.100;2023-05-13T01:30:04;10.40;;;4.78;;
58842;SDS011;44614;54.356;10.100;2023-05-13T01:34:56;8.93;;;5.10;;
58842;SDS011;44614;54.356;10.100;2023-05-13T01:37:22;10.02;;;5.47;;
58842;SDS011;44614;54.356;10.100;2023-05-13T01:39:48;8.23;;;4.55;;
58842;SDS011;44614;54.356;10.100;2023-05-13T01:42:14;6.72;;;4.75;;
58842;SDS011;44614;54.356;10.100;2023-05-13T01:44:40;10.20;;;4.95;;
58842;SDS011;44614;54.356;10.100;2023-05-13T01:47:05;7.47;;;4.05;;
58842;SDS011;44614;54.356;10.100;2023-05-13T01:49:30;7.38;;;4.35;;
58842;SDS011;44614;54.356;10.100;2023-05-13T01:51:56;9.10;;;5.03;;
58842;SDS011;44614;54.356;10.100;2023-05-13T01:54:21;8.73;;;4.55;;
58842;SDS011;44614;54.356;10.100;2023-05-13T01:56:47;10.55;;;4.20;;
58842;SDS011;44614;54.356;10.100;2023-05-13T01:59:12;9.77;;;5.30;;
58842;SDS011;44614;54.356;10.100;2023-05-13T02:01:37;11.95;;;6.90;;
58842;SDS011;44614;54.356;10.100;2023-05-13T02:04:04;8.13;;;4.50;;
58842;SDS011;44614;54.356;10.100;2023-05-13T02:06:30;8.63;;;4.93;;
58842;SDS011;44614;54.356;10.100;2023-05-13T02:08:56;11.90;;;5.18;;
58842;SDS011;44614;54.356;10.100;2023-05-13T02:11:21;11.32;;;5.10;;
58842;SDS011;44614;54.356;10.100;2023-05-13T02:13:47;7.95;;;5.13;;
58842;SDS011;44614;54.356;10.100;2023-05-13T02:16:15;13.55;;;5.72;;
58842;SDS011;44614;54.356;10.100;2023-05-13T02:18:41;10.18;;;5.32;;
58842;SDS011;44614;54.356;10.100;2023-05-13T02:21:07;10.38;;;6.05;;
58842;SDS011;44614;54.356;10.100;2023-05-13T02:23:32;11.43;;;6.13;;
58842;SDS011;44614;54.356;10.100;2023-05-13T02:25:58;11.45;;;6.40;;
58842;SDS011;44614;54.356;10.100;2023-05-13T02:28:23;10.93;;;6.32;;
58842;SDS011;44614;54.356;10.100;2023-05-13T02:30:48;12.77;;;6.40;;
58842;SDS011;44614;54.356;10.100;2023-05-13T02:33:14;9.05;;;5.85;;
58842;SDS011;44614;54.356;10.100;2023-05-13T02:35:39;11.95;;;6.68;;
58842;SDS011;44614;54.356;10.100;2023-05-13T02:38:04;10.52;;;6.80;;
58842;SDS011;44614;54.356;10.100;2023-05-13T02:40:30;15.35;;;6.63;;
58842;SDS011;44614;54.356;10.100;2023-05-13T02:42:55;13.02;;;6.75;;
58842;SDS011;44614;54.356;10.100;2023-05-13T02:45:20;15.00;;;7.28;;
58842;SDS011;44614;54.356;10.100;2023-05-13T02:47:46;10.73;;;5.50;;
58842;SDS011;44614;54.356;10.100;2023-05-13T02:50:11;11.88;;;6.93;;
58842;SDS011;44614;54.356;10.100;2023-05-13T02:52:37;10.57;;;6.70;;
58842;SDS011;44614;54.356;10.100;2023-05-13T02:55:05;17.35;;;7.57;;
58842;SDS011;44614;54.356;10.100;2023-05-13T02:57:31;12.95;;;7.72;;
58842;SDS011;44614;54.356;10.100;2023-05-13T02:59:57;8.15;;;5.28;;
58842;SDS011;44614;54.356;10.100;2023-05-13T03:02:22;14.20;;;6.85;;
58842;SDS011;44614;54.356;10.100;2023-05-13T03:04:47;11.68;;;6.43;;
58842;SDS011;44614;54.356;10.100;2023-05-13T03:07:13;16.13;;;7.07;;
58842;SDS011;44614;54.356;10.100;2023-05-13T03:09:38;14.57;;;6.40;;
58842;SDS011;44614;54.356;10.100;2023-05-13T03:12:06;11.85;;;6.85;;
58842;SDS011;44614;54.356;10.100;2023-05-13T03:14:32;12.90;;;6.80;;
58842;SDS011;44614;54.356;10.100;2023-05-13T03:17:01;16.90;;;6.95;;
58842;SDS011;44614;54.356;10.100;2023-05-13T03:19:27;12.93;;;6.37;;
58842;SDS011;44614;54.356;10.100;2023-05-13T03:21:52;15.13;;;6.90;;
58842;SDS011;44614;54.356;10.100;2023-05-13T03:24:17;10.97;;;6.27;;
58842;SDS011;44614;54.356;10.100;2023-05-13T03:26:43;12.05;;;7.13;;
58842;SDS011;44614;54.356;10.100;2023-05-13T03:29:08;16.73;;;8.47;;
58842;SDS011;44614;54.356;10.100;2023-05-13T03:31:33;15.68;;;8.43;;
58842;SDS011;44614;54.356;10.100;2023-05-13T03:33:59;14.23;;;6.03;;
58842;SDS011;44614;54.356;10.100;2023-05-13T03:36:24;13.40;;;6.27;;
58842;SDS011;44614;54.356;10.100;2023-05-13T03:38:50;16.07;;;6.23;;
58842;SDS011;44614;54.356;10.100;2023-05-13T03:41:15;9.37;;;5.53;;
58842;SDS011;44614;54.356;10.100;2023-05-13T03:43:41;10.63;;;6.13;;
58842;SDS011;44614;54.356;10.100;2023-05-13T03:46:07;7.93;;;5.53;;
58842;SDS011;44614;54.356;10.100;2023-05-13T03:48:32;13.02;;;6.10;;
58842;SDS011;44614;54.356;10.100;2023-05-13T03:50:58;11.10;;;6.33;;
58842;SDS011;44614;54.356;10.100;2023-05-13T03:53:23;9.35;;;5.07;;
58842;SDS011;44614;54.356;10.100;2023-05-13T03:55:48;7.95;;;5.30;;
58842;SDS011;44614;54.356;10.100;2023-05-13T03:58:14;11.80;;;6.63;;
58842;SDS011;44614;54.356;10.100;2023-05-13T04:00:40;9.60;;;5.07;;
58842;SDS011;44614;54.356;10.100;2023-05-13T04:03:06;10.97;;;5.80;;
58842;SDS011;44614;54.356;10.100;2023-05-13T04:05:32;10.00;;;4.85;;
58842;SDS011;44614;54.356;10.100;2023-05-13T04:07:57;12.00;;;6.72;;
58842;SDS011;44614;54.356;10.100;2023-05-13T04:10:22;10.80;;;5.65;;
58842;SDS011;44614;54.356;10.100;2023-05-13T04:12:48;13.50;;;6.03;;
58842;SDS011;44614;54.356;10.100;2023-05-13T04:15:13;9.60;;;5.73;;
58842;SDS011;44614;54.356;10.100;2023-05-13T04:17:38;12.70;;;5.85;;
58842;SDS011;44614;54.356;10.100;2023-05-13T04:20:04;9.52;;;5.90;;
58842;SDS011;44614;54.356;10.100;2023-05-13T04:22:30;13.50;;;5.67;;
58842;SDS011;44614;54.356;10.100;2023-05-13T04:24:56;13.63;;;6.95;;
58842;SDS011;44614;54.356;10.100;2023-05-13T04:27:22;12.57;;;6.10;;
58842;SDS011;44614;54.356;10.100;2023-05-13T04:29:48;11.35;;;6.60;;
58842;SDS011;44614;54.356;10.100;2023-05-13T04:32:14;10.23;;;5.43;;
58842;SDS011;44614;54.356;10.100;2023-05-13T04:34:39;9.05;;;4.85;;
58842;SDS011;44614;54.356;10.100;2023-05-13T04:37:05;9.98;;;5.70;;
58842;SDS011;44614;54.356;10.100;2023-05-13T04:39:30;8.88;;;5.65;;
58842;SDS011;44614;54.356;10.100;2023-05-13T04:41:56;11.35;;;5.97;;
58842;SDS011;44614;54.356;10.100;2023-05-13T04:44:21;12.25;;;6.18;;
58842;SDS011;44614;54.356;10.100;2023-05-13T04:46:46;18.50;;;6.43;;
58842;SDS011;44614;54.356;10.100;2023-05-13T04:49:11;8.95;;;5.30;;
58842;SDS011;44614;54.356;10.100;2023-05-13T04:51:39;10.38;;;6.07;;
58842;SDS011;44614;54.356;10.100;2023-05-13T04:54:04;9.77;;;6.20;;
58842;SDS011;44614;54.356;10.100;2023-05-13T04:56:30;11.43;;;5.72;;
58842;SDS011;44614;54.356;10.100;2023-05-13T04:58:55;11.97;;;7.47;;
58842;SDS011;44614;54.356;10.100;2023-05-13T05:01:20;8.87;;;4.90;;
58842;SDS011;44614;54.356;10.100;2023-05-13T05:03:46;8.98;;;5.43;;
58842;SDS011;44614;54.356;10.100;2023-05-13T05:06:11;9.23;;;4.43;;
58842;SDS011;44614;54.356;10.100;2023-05-13T05:08:36;11.05;;;7.35;;
58842;SDS011;44614;54.356;10.100;2023-05-13T05:11:02;9.00;;;5.32;;
58842;SDS011;44614;54.356;10.100;2023-05-13T05:13:27;12.48;;;6.03;;
58842;SDS011;44614;54.356;10.100;2023-05-13T05:15:53;9.13;;;5.53;;
58842;SDS011;44614;54.356;10.100;2023-05-13T05:18:18;13.25;;;6.20;;
58842;SDS011;44614;54.356;10.100;2023-05-13T05:20:43;11.25;;;4.95;;
58842;SDS011;44614;54.356;10.100;2023-05-13T05:23:09;11.60;;;5.78;;
58842;SDS011;44614;54.356;10.100;2023-05-13T05:25:34;9.88;;;5.68;;
58842;SDS011;44614;54.356;10.100;2023-05-13T05:28:00;10.30;;;5.00;;
58842;SDS011;44614;54.356;10.100;2023-05-13T05:30:28;11.88;;;5.00;;
58842;SDS011;44614;54.356;10.100;2023-05-13T05:32:54;10.95;;;5.30;;
58842;SDS011;44614;54.356;10.100;2023-05-13T05:35:20;9.27;;;5.95;;
58842;SDS011;44614;54.356;10.100;2023-05-13T05:37:45;9.63;;;5.50;;
58842;SDS011;44614;54.356;10.100;2023-05-13T05:40:11;7.43;;;5.18;;
58842;SDS011;44614;54.356;10.100;2023-05-13T05:42:36;10.30;;;5.40;;
58842;SDS011;44614;54.356;10.100;2023-05-13T05:45:02;9.50;;;5.15;;
58842;SDS011;44614;54.356;10.100;2023-05-13T05:47:28;12.68;;;5.07;;
58842;SDS011;44614;54.356;10.100;2023-05-13T05:49:53;7.47;;;5.03;;
58842;SDS011;44614;54.356;10.100;2023-05-13T05:52:19;10.85;;;5.15;;
58842;SDS011;44614;54.356;10.100;2023-05-13T05:54:44;9.45;;;5.15;;
58842;SDS011;44614;54.356;10.100;2023-05-13T05:57:09;11.47;;;5.63;;
58842;SDS011;44614;54.356;10.100;2023-05-13T05:59:34;9.83;;;4.90;;
58842;SDS011;44614;54.356;10.100;2023-05-13T06:02:00;8.75;;;5.03;;
58842;SDS011;44614;54.356;10.100;2023-05-13T06:04:25;12.68;;;6.03;;
58842;SDS011;44614;54.356;10.100;2023-05-13T06:06:51;11.83;;;5.87;;
58842;SDS011;44614;54.356;10.100;2023-05-13T06:09:17;9.40;;;4.95;;
58842;SDS011;44614;54.356;10.100;2023-05-13T06:11:42;10.23;;;5.35;;
58842;SDS011;44614;54.356;10.100;2023-05-13T06:14:08;7.57;;;4.70;;
58842;SDS011;44614;54.356;10.100;2023-05-13T06:16:33;9.73;;;4.80;;
58842;SDS011;44614;54.356;10.100;2023-05-13T06:18:58;8.02;;;4.65;;
58842;SDS011;44614;54.356;10.100;2023-05-13T06:21:24;8.80;;;5.07;;
58842;SDS011;44614;54.356;10.100;2023-05-13T06:23:49;7.83;;;4.13;;
58842;SDS011;44614;54.356;10.100;2023-05-13T06:26:15;7.30;;;5.07;;
58842;SDS011;44614;54.356;10.100;2023-05-13T06:28:40;7.00;;;3.63;;
58842;SDS011;44614;54.356;10.100;2023-05-13T06:31:05;11.83;;;5.27;;
58842;SDS011;44614;54.356;10.100;2023-05-13T06:33:31;8.30;;;4.80;;
58842;SDS011;44614;54.356;10.100;2023-05-13T06:35:56;5.80;;;4.27;;
58842;SDS011;44614;54.356;10.100;2023-05-13T06:38:21;7.17;;;3.57;;
58842;SDS011;44614;54.356;10.100;2023-05-13T06:40:46;11.23;;;4.27;;
58842;SDS011;44614;54.356;10.100;2023-05-13T06:43:12;8.27;;;3.97;;
58842;SDS011;44614;54.356;10.100;2023-05-13T06:45:38;8.07;;;4.95;;
58842;SDS011;44614;54.356;10.100;2023-05-13T06:48:04;7.00;;;4.90;;
58842;SDS011;44614;54.356;10.100;2023-05-13T06:50:29;11.93;;;4.67;;
58842;SDS011;44614;54.356;10.100;2023-05-13T06:52:55;7.87;;;4.80;;
58842;SDS011;44614;54.356;10.100;2023-05-13T06:55:21;10.10;;;5.35;;
58842;SDS011;44614;54.356;10.100;2023-05-13T06:57:46;8.97;;;5.67;;
58842;SDS011;44614;54.356;10.100;2023-05-13T07:00:14;8.73;;;4.23;;
58842;SDS011;44614;54.356;10.100;2023-05-13T07:02:40;9.48;;;5.22;;
58842;SDS011;44614;54.356;10.100;2023-05-13T07:05:06;8.20;;;5.00;;
58842;SDS011;44614;54.356;10.100;2023-05-13T07:07:32;9.50;;;4.80;;
58842;SDS011;44614;54.356;10.100;2023-05-13T07:10:00;8.52;;;4.40;;
58842;SDS011;44614;54.356;10.100;2023-05-13T07:12:26;6.57;;;3.67;;
58842;SDS011;44614;54.356;10.100;2023-05-13T07:14:51;8.03;;;4.50;;
58842;SDS011;44614;54.356;10.100;2023-05-13T07:17:17;7.90;;;3.87;;
58842;SDS011;44614;54.356;10.100;2023-05-13T07:19:42;9.63;;;3.97;;
58842;SDS011;44614;54.356;10.100;2023-05-13T07:22:08;7.87;;;4.07;;
58842;SDS011;44614;54.356;10.100;2023-05-13T07:24:33;6.93;;;4.07;;
58842;SDS011;44614;54.356;10.100;2023-05-13T07:26:58;8.47;;;4.50;;
58842;SDS011;44614;54.356;10.100;2023-05-13T07:29:25;6.95;;;3.65;;
58842;SDS011;44614;54.356;10.100;2023-05-13T07:31:50;9.40;;;4.60;;
58842;SDS011;44614;54.356;10.100;2023-05-13T07:34:18;8.68;;;4.80;;
58842;SDS011;44614;54.356;10.100;2023-05-13T07:36:43;7.53;;;4.47;;
58842;SDS011;44614;54.356;10.100;2023-05-13T07:39:08;11.97;;;3.47;;
58842;SDS011;44614;54.356;10.100;2023-05-13T07:41:34;7.53;;;4.07;;
58842;SDS011;44614;54.356;10.100;2023-05-13T07:44:00;7.18;;;3.60;;
58842;SDS011;44614;54.356;10.100;2023-05-13T07:46:26;6.70;;;3.63;;
58842;SDS011;44614;54.356;10.100;2023-05-13T07:48:51;8.60;;;3.80;;
58842;SDS011;44614;54.356;10.100;2023-05-13T07:51:16;6.90;;;3.40;;
58842;SDS011;44614;54.356;10.100;2023-05-13T07:53:42;6.90;;;3.43;;
58842;SDS011;44614;54.356;10.100;2023-05-13T07:56:09;7.50;;;3.80;;
58842;SDS011;44614;54.356;10.100;2023-05-13T07:58:34;7.27;;;4.10;;
58842;SDS011;44614;54.356;10.100;2023-05-13T08:01:00;5.40;;;3.10;;
58842;SDS011;44614;54.356;10.100;2023-05-13T08:03:25;10.17;;;4.37;;
58842;SDS011;44614;54.356;10.100;2023-05-13T08:05:50;5.40;;;3.17;;
58842;SDS011;44614;54.356;10.100;2023-05-13T08:08:16;5.77;;;3.70;;
58842;SDS011;44614;54.356;10.100;2023-05-13T08:10:41;8.23;;;3.20;;
58842;SDS011;44614;54.356;10.100;2023-05-13T08:13:06;7.90;;;3.60;;
58842;SDS011;44614;54.356;10.100;2023-05-13T08:15:31;8.17;;;3.77;;
58842;SDS011;44614;54.356;10.100;2023-05-13T08:17:57;6.47;;;3.33;;
58842;SDS011;44614;54.356;10.100;2023-05-13T08:20:22;5.33;;;3.70;;
58842;SDS011;44614;54.356;10.100;2023-05-13T08:22:53;6.25;;;3.85;;
58842;SDS011;44614;54.356;10.100;2023-05-13T08:25:19;6.30;;;4.07;;
58842;SDS011;44614;54.356;10.100;2023-05-13T08:27:45;5.77;;;3.47;;
58842;SDS011;44614;54.356;10.100;2023-05-13T08:30:11;9.48;;;4.47;;
58842;SDS011;44614;54.356;10.100;2023-05-13T08:32:36;6.15;;;3.65;;
58842;SDS011;44614;54.356;10.100;2023-05-13T08:35:01;9.23;;;4.43;;
58842;SDS011;44614;54.356;10.100;2023-05-13T08:37:27;7.40;;;4.40;;
58842;SDS011;44614;54.356;10.100;2023-05-13T08:39:52;8.30;;;3.27;;
58842;SDS011;44614;54.356;10.100;2023-05-13T08:42:19;7.80;;;3.90;;
58842;SDS011;44614;54.356;10.100;2023-05-13T08:44:47;8.52;;;4.10;;
58842;SDS011;44614;54.356;10.100;2023-05-13T08:47:15;6.10;;;3.97;;
58842;SDS011;44614;54.356;10.100;2023-05-13T08:49:51;6.50;;;3.47;;
58842;SDS011;44614;54.356;10.100;2023-05-13T08:52:17;6.57;;;3.67;;
58842;SDS011;44614;54.356;10.100;2023-05-13T08:54:44;7.10;;;3.92;;
58842;SDS011;44614;54.356;10.100;2023-05-13T08:57:11;7.13;;;3.97;;
58842;SDS011;44614;54.356;10.100;2023-05-13T08:59:37;7.47;;;5.23;;
58842;SDS011;44614;54.356;10.100;2023-05-13T09:02:03;8.03;;;4.03;;
58842;SDS011;44614;54.356;10.100;2023-05-13T09:04:30;10.10;;;3.72;;
58842;SDS011;44614;54.356;10.100;2023-05-13T09:06:58;5.43;;;3.50;;
58842;SDS011;44614;54.356;10.100;2023-05-13T09:09:23;6.40;;;3.60;;
58842;SDS011;44614;54.356;10.100;2023-05-13T09:11:49;8.55;;;4.45;;
58842;SDS011;44614;54.356;10.100;2023-05-13T09:14:17;8.63;;;3.17;;
58842;SDS011;44614;54.356;10.100;2023-05-13T09:16:43;8.35;;;3.63;;
58842;SDS011;44614;54.356;10.100;2023-05-13T09:19:09;9.48;;;4.35;;
58842;SDS011;44614;54.356;10.100;2023-05-13T09:21:35;7.88;;;3.78;;
58842;SDS011;44614;54.356;10.100;2023-05-13T09:24:04;9.95;;;4.28;;
58842;SDS011;44614;54.356;10.100;2023-05-13T09:26:33;6.65;;;4.32;;
58842;SDS011;44614;54.356;10.100;2023-05-13T09:29:18;6.68;;;4.00;;
58842;SDS011;44614;54.356;10.100;2023-05-13T09:31:49;8.50;;;3.40;;
58842;SDS011;44614;54.356;10.100;2023-05-13T09:34:23;7.22;;;4.47;;
58842;SDS011;44614;54.356;10.100;2023-05-13T09:37:06;8.10;;;4.75;;
58842;SDS011;44614;54.356;10.100;2023-05-13T09:39:33;10.00;;;4.15;;
58842;SDS011;44614;54.356;10.100;2023-05-13T09:42:03;6.63;;;4.20;;
58842;SDS011;44614;54.356;10.100;2023-05-13T09:44:29;8.63;;;3.47;;
58842;SDS011;44614;54.356;10.100;2023-05-13T09:46:54;7.53;;;4.20;;
58842;SDS011;44614;54.356;10.100;2023-05-13T09:49:24;12.52;;;4.15;;
58842;SDS011;44614;54.356;10.100;2023-05-13T09:51:50;7.53;;;3.83;;
58842;SDS011;44614;54.356;10.100;2023-05-13T09:54:15;8.23;;;3.57;;
58842;SDS011;44614;54.356;10.100;2023-05-13T09:56:41;10.90;;;4.53;;
58842;SDS011;44614;54.356;10.100;2023-05-13T09:59:06;7.73;;;4.23;;
58842;SDS011;44614;54.356;10.100;2023-05-13T10:01:32;12.67;;;5.00;;
58842;SDS011;44614;54.356;10.100;2023-05-13T10:04:00;9.95;;;3.92;;
58842;SDS011;44614;54.356;10.100;2023-05-13T10:06:26;6.47;;;4.10;;
58842;SDS011;44614;54.356;10.100;2023-05-13T10:08:54;8.35;;;3.67;;
58842;SDS011;44614;54.356;10.100;2023-05-13T10:11:23;8.75;;;4.07;;
58842;SDS011;44614;54.356;10.100;2023-05-13T10:13:49;10.00;;;4.65;;
58842;SDS011;44614;54.356;10.100;2023-05-13T10:16:19;8.88;;;3.90;;
58842;SDS011;44614;54.356;10.100;2023-05-13T10:18:45;6.67;;;3.03;;
58842;SDS011;44614;54.356;10.100;2023-05-13T10:21:11;6.75;;;3.22;;
58842;SDS011;44614;54.356;10.100;2023-05-13T10:26:03;5.60;;;3.30;;
58842;SDS011;44614;54.356;10.100;2023-05-13T10:28:30;6.35;;;3.45;;
58842;SDS011;44614;54.356;10.100;2023-05-13T10:30:56;7.10;;;3.03;;
58842;SDS011;44614;54.356;10.100;2023-05-13T10:33:22;8.63;;;3.50;;
58842;SDS011;44614;54.356;10.100;2023-05-13T10:44:16;6.68;;;3.25;;
58842;SDS011;44614;54.356;10.100;2023-05-13T10:46:43;5.43;;;3.22;;
58842;SDS011;44614;54.356;10.100;2023-05-13T10:49:15;9.07;;;4.20;;
58842;SDS011;44614;54.356;10.100;2023-05-13T10:51:44;6.78;;;3.20;;
58842;SDS011;44614;54.356;10.100;2023-05-13T10:54:17;6.25;;;2.83;;
58842;SDS011;44614;54.356;10.100;2023-05-13T10:56:44;6.63;;;3.65;;
58842;SDS011;44614;54.356;10.100;2023-05-13T10:59:09;5.95;;;2.55;;
58842;SDS011;44614;54.356;10.100;2023-05-13T11:01:36;6.28;;;3.38;;
58842;SDS011;44614;54.356;10.100;2023-05-13T11:04:14;10.32;;;3.60;;
58842;SDS011;44614;54.356;10.100;2023-05-13T11:06:45;6.22;;;3.58;;
58842;SDS011;44614;54.356;10.100;2023-05-13T11:09:12;6.22;;;3.30;;
58842;SDS011;44614;54.356;10.100;2023-05-13T11:11:39;6.00;;;3.10;;
58842;SDS011;44614;54.356;10.100;2023-05-13T11:14:07;4.63;;;2.72;;
58842;SDS011;44614;54.356;10.100;2023-05-13T11:19:20;7.03;;;3.50;;
58842;SDS011;44614;54.356;10.100;2023-05-13T11:21:49;6.78;;;3.42;;
58842;SDS011;44614;54.356;10.100;2023-05-13T11:24:19;5.75;;;3.63;;
58842;SDS011;44614;54.356;10.100;2023-05-13T11:26:47;6.00;;;3.47;;
58842;SDS011;44614;54.356;10.100;2023-05-13T11:29:13;8.00;;;3.63;;
58842;SDS011;44614;54.356;10.100;2023-05-13T11:34:13;14.73;;;4.03;;
58842;SDS011;44614;54.356;10.100;2023-05-13T11:36:41;9.63;;;3.67;;
58842;SDS011;44614;54.356;10.100;2023-05-13T11:39:11;8.27;;;3.47;;
58842;SDS011;44614;54.356;10.100;2023-05-13T11:41:55;6.97;;;3.05;;
58842;SDS011;44614;54.356;10.100;2023-05-13T11:44:22;6.55;;;4.10;;
58842;SDS011;44614;54.356;10.100;2023-05-13T11:46:49;11.40;;;3.72;;
58842;SDS011;44614;54.356;10.100;2023-05-13T11:49:33;7.03;;;3.95;;
58842;SDS011;44614;54.356;10.100;2023-05-13T11:54:39;8.68;;;4.03;;
58842;SDS011;44614;54.356;10.100;2023-05-13T12:02:21;7.77;;;4.70;;
58842;SDS011;44614;54.356;10.100;2023-05-13T12:04:48;7.07;;;3.83;;
58842;SDS011;44614;54.356;10.100;2023-05-13T12:07:18;7.40;;;3.88;;
58842;SDS011;44614;54.356;10.100;2023-05-13T12:09:44;9.50;;;4.45;;
58842;SDS011;44614;54.356;10.100;2023-05-13T12:12:10;7.40;;;3.53;;
58842;SDS011;44614;54.356;10.100;2023-05-13T12:17:00;7.18;;;3.45;;
58842;SDS011;44614;54.356;10.100;2023-05-13T12:21:51;4.03;;;3.00;;
58842;SDS011;44614;54.356;10.100;2023-05-13T12:24:20;8.40;;;4.03;;
58842;SDS011;44614;54.356;10.100;2023-05-13T12:26:46;11.43;;;4.00;;
58842;SDS011;44614;54.356;10.100;2023-05-13T12:29:12;7.20;;;4.05;;
58842;SDS011;44614;54.356;10.100;2023-05-13T12:31:39;8.55;;;4.30;;
58842;SDS011;44614;54.356;10.100;2023-05-13T12:34:06;6.20;;;3.80;;
58842;SDS011;44614;54.356;10.100;2023-05-13T12:39:08;6.47;;;4.05;;
58842;SDS011;44614;54.356;10.100;2023-05-13T12:44:06;6.65;;;4.10;;
58842;SDS011;44614;54.356;10.100;2023-05-13T12:46:54;11.75;;;3.88;;
58842;SDS011;44614;54.356;10.100;2023-05-13T12:49:19;8.10;;;3.90;;
58842;SDS011;44614;54.356;10.100;2023-05-13T12:54:10;6.77;;;3.67;;
58842;SDS011;44614;54.356;10.100;2023-05-13T12:59:01;7.53;;;2.90;;
58842;SDS011;44614;54.356;10.100;2023-05-13T13:03:52;7.33;;;3.77;;
58842;SDS011;44614;54.356;10.100;2023-05-13T13:08:43;6.53;;;3.87;;
58842;SDS011;44614;54.356;10.100;2023-05-13T13:11:08;8.15;;;4.10;;
58842;SDS011;44614;54.356;10.100;2023-05-13T13:15:59;6.53;;;3.57;;
58842;SDS011;44614;54.356;10.100;2023-05-13T13:18:25;8.48;;;3.70;;
58842;SDS011;44614;54.356;10.100;2023-05-13T13:20:51;5.47;;;2.85;;
58842;SDS011;44614;54.356;10.100;2023-05-13T13:23:17;8.90;;;3.70;;
58842;SDS011;44614;54.356;10.100;2023-05-13T13:25:43;6.30;;;3.50;;
58842;SDS011;44614;54.356;10.100;2023-05-13T13:30:34;6.97;;;3.67;;
58842;SDS011;44614;54.356;10.100;2023-05-13T13:35:25;5.90;;;3.40;;
58842;SDS011;44614;54.356;10.100;2023-05-13T13:37:50;7.00;;;3.50;;
58842;SDS011;44614;54.356;10.100;2023-05-13T13:42:42;5.60;;;3.30;;
58842;SDS011;44614;54.356;10.100;2023-05-13T13:47:33;7.97;;;4.00;;
58842;SDS011;44614;54.356;10.100;2023-05-13T13:52:24;9.67;;;3.53;;
58842;SDS011;44614;54.356;10.100;2023-05-13T13:54:52;10.13;;;4.15;;
58842;SDS011;44614;54.356;10.100;2023-05-13T13:59:43;5.95;;;3.13;;
58842;SDS011;44614;54.356;10.100;2023-05-13T14:04:33;6.90;;;3.50;;
58842;SDS011;44614;54.356;10.100;2023-05-13T14:09:24;5.93;;;2.63;;
58842;SDS011;44614;54.356;10.100;2023-05-13T14:14:15;4.53;;;2.63;;
58842;SDS011;44614;54.356;10.100;2023-05-13T14:19:06;2.90;;;1.95;;
58842;SDS011;44614;54.356;10.100;2023-05-13T14:23:57;4.93;;;3.30;;
58842;SDS011;44614;54.356;10.100;2023-05-13T14:28:48;11.13;;;4.57;;
58842;SDS011;44614;54.356;10.100;2023-05-13T14:33:38;7.13;;;3.07;;
58842;SDS011;44614;54.356;10.100;2023-05-13T14:38:29;4.30;;;2.65;;
58842;SDS011;44614;54.356;10.100;2023-05-13T14:40:56;10.77;;;7.97;;
58842;SDS011;44614;54.356;10.100;2023-05-13T14:43:22;9.07;;;3.92;;
58842;SDS011;44614;54.356;10.100;2023-05-13T14:48:13;3.83;;;2.50;;
58842;SDS011;44614;54.356;10.100;2023-05-13T14:50:40;3.45;;;2.58;;
58842;SDS011;44614;54.356;10.100;2023-05-13T14:53:09;4.22;;;2.38;;
58842;SDS011;44614;54.356;10.100;2023-05-13T14:55:34;11.80;;;4.35;;
58842;SDS011;44614;54.356;10.100;2023-05-13T14:57:59;7.10;;;3.10;;
58842;SDS011;44614;54.356;10.100;2023-05-13T15:00:25;11.70;;;3.57;;
58842;SDS011;44614;54.356;10.100;2023-05-13T15:02:50;4.15;;;2.53;;
58842;SDS011;44614;54.356;10.100;2023-05-13T15:05:16;5.40;;;2.20;;
58842;SDS011;44614;54.356;10.100;2023-05-13T15:07:41;4.57;;;2.23;;
58842;SDS011;44614;54.356;10.100;2023-05-13T15:10:06;7.07;;;2.40;;
58842;SDS011;44614;54.356;10.100;2023-05-13T15:12:32;3.58;;;2.03;;
58842;SDS011;44614;54.356;10.100;2023-05-13T15:14:57;4.33;;;2.37;;
58842;SDS011;44614;54.356;10.100;2023-05-13T15:17:23;5.37;;;2.43;;
58842;SDS011;44614;54.356;10.100;2023-05-13T15:19:48;4.97;;;1.93;;
58842;SDS011;44614;54.356;10.100;2023-05-13T15:22:14;9.23;;;3.50;;
58842;SDS011;44614;54.356;10.100;2023-05-13T15:24:41;5.97;;;2.80;;
58842;SDS011;44614;54.356;10.100;2023-05-13T15:27:06;12.50;;;4.97;;
58842;SDS011;44614;54.356;10.100;2023-05-13T15:29:32;9.70;;;5.00;;
58842;SDS011;44614;54.356;10.100;2023-05-13T15:31:57;14.40;;;7.18;;
58842;SDS011;44614;54.356;10.100;2023-05-13T15:34:23;7.50;;;4.53;;
58842;SDS011;44614;54.356;10.100;2023-05-13T15:36:49;4.20;;;2.60;;
58842;SDS011;44614;54.356;10.100;2023-05-13T15:39:14;6.23;;;3.37;;
58842;SDS011;44614;54.356;10.100;2023-05-13T15:41:42;5.00;;;2.78;;
58842;SDS011;44614;54.356;10.100;2023-05-13T15:44:08;8.20;;;3.47;;
58842;SDS011;44614;54.356;10.100;2023-05-13T15:46:33;6.83;;;2.47;;
58842;SDS011;44614;54.356;10.100;2023-05-13T15:48:59;3.33;;;2.30;;
58842;SDS011;44614;54.356;10.100;2023-05-13T15:51:25;6.78;;;2.60;;
58842;SDS011;44614;54.356;10.100;2023-05-13T15:53:57;3.60;;;2.55;;
58842;SDS011;44614;54.356;10.100;2023-05-13T15:56:23;7.22;;;2.72;;
58842;SDS011;44614;54.356;10.100;2023-05-13T15:58:49;5.10;;;3.50;;